Latest Weather Observations for Camden

IDN60801

Issued at 4:32 am EST Monday 24 July 2017 (issued every 30 minutes, with the page automatically refreshed every 10 minutes)

About weather observations | Map of weather stations | Latest weather observations for NSW | Other Formats
Station Details ID: 068192 Name: CAMDEN AIRPORT AWS Lat: -34.04 Lon: 150.69 Height: 73.9 m
Data from the previous 72 hours. | See also: Recent months at Camden
Date/Time
EST
Temp
°C
App
Temp
°C
Dew
Point
°C
Rel
Hum
%
Delta-T
°C
Wind Press
QNH
hPa
Press
MSL
hPa
Rain since
9am
mm
Dir  Spd
km/h
Gust
km/h
Spd
kts
Gust
kts
24/04:30am 8.2 5.4 2.2 66 2.5 NE 6 11 3 6 1016.3 1016.4 0.0
24/04:00am 4.1 -0.3 0.6 78 1.3 NW 13 19 7 10 1015.9 1016.0 0.0
24/03:30am 5.2 3.3 0.6 72 1.8 CALM 0 7 0 4 1016.1 1016.2 0.0
24/03:00am 4.6 1.0 0.6 75 1.5 NNE 9 15 5 8 1015.9 1016.0 0.0
24/02:30am 7.0 5.0 0.2 62 2.7 CALM 0 0 0 0 1016.0 1016.1 0.0
24/02:00am 7.5 5.6 0.5 61 2.8 CALM 0 0 0 0 1016.2 1016.3 0.0
24/01:30am 8.5 4.5 0.2 56 3.3 S 11 15 6 8 1016.1 1016.2 0.0
24/01:00am 10.5 6.3 -0.6 46 4.4 WNW 11 19 6 10 1015.8 1015.9 0.0
24/12:30am 12.0 6.4 0.1 44 4.9 NW 19 22 10 12 1015.2 1015.3 0.0
24/12:00am 10.4 5.2 0.4 50 4.1 NNW 17 20 9 11 1015.2 1015.3 0.0
 
Date/Time
EST
Temp
°C
App
Temp
°C
Dew
Point
°C
Rel
Hum
%
Delta-T
°C
Wind Press
QNH
hPa
Press
MSL
hPa
Rain since
9am
mm
Dir  Spd
km/h
Gust
km/h
Spd
kts
Gust
kts
23/11:30pm 9.3 5.0 1.0 56 3.4 NW 13 19 7 10 1015.0 1015.1 0.0
23/11:00pm 6.5 2.0 2.2 74 1.8 N 15 17 8 9 1015.1 1015.2 0.0
23/10:30pm 7.4 5.0 2.1 69 2.2 NNW 4 11 2 6 1015.5 1015.6 0.0
23/10:00pm 7.1 4.4 2.4 72 1.9 W 6 9 3 5 1015.3 1015.5 0.0
23/09:30pm 7.4 4.4 2.3 70 2.1 N 7 9 4 5 1015.1 1015.2 0.0
23/09:00pm 8.8 5.9 2.8 66 2.6 N 7 9 4 5 1015.0 1015.1 0.0
23/08:30pm 10.6 7.7 2.4 57 3.5 NW 7 11 4 6 1014.7 1014.8 0.0
23/08:00pm 11.3 8.9 2.1 53 3.9 NNW 4 6 2 3 1014.5 1014.6 0.0
23/07:30pm 11.6 9.1 1.3 49 4.3 WNW 4 9 2 5 1014.3 1014.4 0.0
23/07:00pm 12.6 9.7 1.3 46 4.8 NW 6 11 3 6 1013.9 1014.0 0.0
23/06:30pm 15.3 12.2 1.1 38 6.2 NW 7 13 4 7 1013.6 1013.7 0.0
23/06:00pm 14.9 11.1 1.8 41 5.8 WNW 11 17 6 9 1013.1 1013.2 0.0
23/05:30pm 16.3 13.1 0.8 35 6.8 NW 7 9 4 5 1012.8 1012.9 0.0
23/05:00pm 18.1 14.6 1.2 32 7.6 NNW 9 11 5 6 1012.5 1012.6 0.0
23/04:30pm 20.2 16.3 1.1 28 8.7 NW 11 20 6 11 1012.4 1012.5 0.0
23/04:00pm 21.4 16.7 1.1 26 9.3 WNW 15 24 8 13 1012.3 1012.4 0.0
23/03:30pm 21.1 17.0 -0.2 24 9.5 NW 11 17 6 9 1012.4 1012.5 0.0
23/03:00pm 21.1 15.5 -0.2 24 9.5 NNW 19 24 10 13 1012.4 1012.5 0.0
23/02:30pm 21.1 15.9 0.3 25 9.4 N 17 22 9 12 1012.5 1012.6 0.0
23/02:00pm 20.7 14.8 -0.6 24 9.4 N 20 30 11 16 1012.7 1012.8 0.0
23/01:30pm 20.3 14.4 -0.9 24 9.3 NNW 20 33 11 18 1013.2 1013.3 0.0
23/01:00pm 19.9 13.2 -1.2 24 9.1 NNW 24 32 13 17 1013.8 1013.9 0.0
23/12:30pm 19.7 13.4 -0.9 25 8.9 NW 22 28 12 15 1014.5 1014.6 0.0
23/12:00pm 18.9 14.2 -1.5 25 8.7 NW 13 20 7 11 1015.2 1015.3 0.0
23/11:30am 18.0 12.0 -1.3 27 8.2 WNW 20 28 11 15 1016.4 1016.5 0.0
23/11:00am 18.0 11.1 -2.8 24 8.5 W 24 35 13 19 1016.8 1016.9 0.0
23/10:30am 17.5 10.7 -2.2 26 8.2 W 24 33 13 18 1016.9 1017.0 0.0
23/10:00am 16.1 11.9 -0.6 32 7.0 W 11 24 6 13 1017.2 1017.3 0.0
23/09:54am 15.5 12.2 0.1 35 6.6 WSW 7 13 4 7 1017.3 1017.4 0.0
23/09:30am 10.3 8.0 2.7 59 3.3 ESE 4 9 2 5 1017.3 1017.4 0.0
23/09:00am 5.5 2.8 2.5 81 1.2 N 6 7 3 4 1017.6 1017.7 0.2
23/08:30am 3.1 0.9 1.2 87 0.7 NW 2 9 1 5 1017.7 1017.8 0.2
23/08:00am 0.1 -2.0 -1.0 92 0.4 CALM 0 0 0 0 1017.6 1017.7 0.2
23/07:30am -1.2 -4.6 -1.9 95 0.2 NE 6 13 3 7 1017.6 1017.7 0.0
23/07:00am -2.3 -5.9 -3.3 93 0.2 SSE 6 11 3 6 1017.5 1017.6 0.0
23/06:30am -2.9 -5.4 -4.2 91 0.3 CALM 0 0 0 0 1017.4 1017.5 0.0
23/06:00am -2.2 -4.6 -3.0 94 0.2 CALM 0 0 0 0 1017.1 1017.2 0.0
23/05:30am -2.2 -5.4 -3.2 93 0.2 S 4 7 2 4 1017.4 1017.5 0.0
23/05:00am -2.1 -4.5 -3.2 92 0.3 CALM 0 0 0 0 1017.2 1017.3 0.0
23/04:30am -1.7 -4.0 -2.7 93 0.3 CALM 0 0 0 0 1017.2 1017.3 0.0
23/04:00am -2.1 -4.5 -3.4 91 0.3 CALM 0 7 0 4 1017.1 1017.2 0.0
23/03:30am -1.9 -5.6 -2.9 93 0.2 S 7 9 4 5 1017.2 1017.3 0.0
23/03:00am -1.7 -4.1 -2.8 92 0.3 CALM 0 0 0 0 1017.0 1017.1 0.0
23/02:30am -1.3 -3.6 -2.0 95 0.2 CALM 0 0 0 0 1017.3 1017.4 0.0
23/02:00am -1.1 -4.7 -2.1 93 0.3 S 7 9 4 5 1017.6 1017.7 0.0
23/01:56am -1.2 -4.8 -2.2 93 0.3 S 7 9 4 5 1017.7 1017.8 0.0
23/01:37am -1.1 -3.7 -1.9 94 0.2 SSW 2 7 1 4 1017.8 1017.9 0.0
23/01:30am -1.1 -3.3 -1.9 94 0.2 CALM 0 0 0 0 1017.9 1018.0 0.0
23/01:00am -0.5 -2.7 -1.2 95 0.2 CALM 0 0 0 0 1018.1 1018.2 0.0
23/12:30am -0.6 -2.7 -1.0 97 0.1 CALM 0 0 0 0 1018.4 1018.5 0.0
23/12:00am -0.2 -2.3 -0.8 96 0.2 CALM 0 0 0 0 1018.4 1018.5 0.0
 
Date/Time
EST
Temp
°C
App
Temp
°C
Dew
Point
°C
Rel
Hum
%
Delta-T
°C
Wind Press
QNH
hPa
Press
MSL
hPa
Rain since
9am
mm
Dir  Spd
km/h
Gust
km/h
Spd
kts
Gust
kts
22/11:59pm -0.2 -2.3 -0.8 96 0.2 CALM 0 0 0 0 1018.5 1018.6 0.0
22/11:49pm 0.2 -1.8 -0.2 97 0.1 CALM 0 0 0 0 1018.6 1018.7 0.0
22/11:30pm 0.2 -1.8 -0.4 96 0.2 CALM 0 0 0 0 1018.6 1018.7 0.0
22/11:29pm 0.0 -2.1 -0.6 96 0.2 CALM 0 0 0 0 1018.6 1018.7 0.0
22/11:20pm 0.1 -2.0 -0.6 95 0.3 CALM 0 0 0 0 1018.8 1018.9 0.0
22/11:18pm 0.2 -1.9 -0.5 95 0.3 CALM 0 0 0 0 1018.8 1018.9 0.0
22/11:00pm 1.1 -0.8 0.7 97 0.1 CALM 0 0 0 0 1018.7 1018.8 0.0
22/10:30pm 1.4 -0.4 1.0 97 0.2 CALM 0 0 0 0 1018.8 1018.9 0.0
22/10:00pm 2.0 0.2 1.3 95 0.3 CALM 0 0 0 0 1018.8 1018.9 0.0
22/09:30pm 1.7 -0.2 0.4 91 0.5 CALM 0 0 0 0 1018.9 1019.0 0.0
22/09:00pm 3.1 1.4 1.9 92 0.5 CALM 0 0 0 0 1018.8 1018.9 0.0
22/08:30pm 3.6 1.9 1.6 87 0.8 CALM 0 0 0 0 1019.1 1019.2 0.0
22/08:00pm 5.1 3.6 3.1 87 0.8 CALM 0 0 0 0 1019.2 1019.3 0.0
22/07:30pm 6.1 3.4 2.7 79 1.4 NW 6 9 3 5 1019.2 1019.3 0.0
22/07:00pm 7.2 5.3 2.9 74 1.8 N 2 9 1 5 1019.2 1019.3 0.0
22/06:30pm 9.3 7.9 3.7 68 2.4 CALM 0 0 0 0 1019.3 1019.4 0.0
22/06:00pm 9.4 7.7 3.8 68 2.4 NW 2 7 1 4 1019.2 1019.3 0.0
22/05:30pm 12.3 10.9 3.3 54 4.0 CALM 0 0 0 0 1018.8 1018.9 0.0
22/05:00pm 13.6 10.5 3.4 50 4.6 N 9 13 5 7 1018.7 1018.8 0.0
22/04:30pm 15.9 13.1 3.0 42 5.9 N 7 7 4 4 1018.5 1018.6 0.0
22/04:00pm 16.9 13.4 1.4 35 6.9 NNE 9 13 5 7 1018.4 1018.5 0.0
22/03:30pm 17.3 13.4 1.3 34 7.1 NNE 11 15 6 8 1018.4 1018.5 0.0
22/03:00pm 17.8 14.8 0.5 31 7.6 N 6 11 3 6 1018.7 1018.8 0.0
22/02:30pm 17.5 13.9 0.6 32 7.4 N 9 13 5 7 1018.8 1018.9 0.0
22/02:00pm 17.5 15.0 1.5 34 7.1 N 4 9 2 5 1019.2 1019.3 0.0
22/01:30pm 16.7 13.1 0.4 33 7.1 N 9 13 5 7 1019.6 1019.7 0.0
22/01:00pm 16.0 13.0 0.6 35 6.6 N 6 13 3 7 1020.0 1020.1 0.0
22/12:30pm 15.6 12.6 0.6 36 6.5 N 6 15 3 8 1020.5 1020.6 0.0
22/12:00pm 14.6 11.2 -0.7 35 6.3 NNE 7 9 4 5 1021.1 1021.2 0.0
22/11:30am 13.3 10.7 1.0 43 5.2 NW 4 9 2 5 1021.9 1022.0 0.0
22/11:00am 12.5 10.4 1.8 48 4.6 N 2 11 1 6 1022.5 1022.6 0.0
22/10:30am 10.5 7.8 2.6 58 3.4 NNE 6 9 3 5 1023.1 1023.2 0.0
22/10:00am 8.7 7.1 2.3 64 2.7 CALM 0 0 0 0 1023.6 1023.7 0.0
22/09:30am 7.3 5.8 2.8 73 1.9 CALM 0 0 0 0 1023.9 1024.0 0.0
22/09:00am 4.0 1.2 2.0 87 0.8 SSE 6 7 3 4 1024.2 1024.3 0.0
22/08:30am 1.7 -0.1 1.0 95 0.3 CALM 0 0 0 0 1024.2 1024.3 0.0
22/08:00am -0.5 -2.6 -0.8 98 0.1 CALM 0 0 0 0 1024.1 1024.2 0.0
22/07:40am -0.8 -2.9 -0.9 99 0.0 CALM 0 0 0 0 1024.2 1024.3 0.0
22/07:30am -0.9 -3.0 -1.0 99 0.0 CALM 0 0 0 0 1024.2 1024.3 0.0
22/07:21am -2.1 -4.4 -2.2 99 -0.1 CALM 0 0 0 0 1024.3 1024.4 0.0
22/07:00am -1.5 -3.7 -1.6 99 0.0 CALM 0 0 0 0 1024.1 1024.2 0.0
22/06:30am -1.2 -3.4 -1.3 99 0.0 CALM 0 0 0 0 1023.7 1023.8 0.0
22/06:00am -0.9 -3.0 -1.0 99 0.0 CALM 0 0 0 0 1023.4 1023.5 0.0
22/05:30am -0.8 -2.9 -0.9 99 0.0 CALM 0 0 0 0 1023.4 1023.5 0.0
22/05:17am -1.4 -3.6 -1.5 99 0.0 CALM 0 0 0 0 1023.3 1023.4 0.0
22/05:01am -1.4 -3.6 -1.5 99 0.0 CALM 0 0 0 0 1023.1 1023.2 0.0
22/05:00am -1.4 -3.6 -1.5 99 0.0 CALM 0 0 0 0 1023.1 1023.2 0.0
22/04:54am -1.1 -3.3 -1.2 99 0.0 CALM 0 0 0 0 1023.2 1023.3 0.0
22/04:45am -0.8 -2.9 -0.9 99 0.0 CALM 0 0 0 0 1023.1 1023.2 0.0
22/04:30am -0.6 -2.7 -0.7 99 0.0 CALM 0 0 0 0 1023.1 1023.2 0.0
22/04:06am -0.7 -2.8 -0.8 99 0.0 CALM 0 0 0 0 1023.0 1023.1 0.0
22/04:00am -0.4 -2.5 -0.5 99 0.0 CALM 0 0 0 0 1023.0 1023.1 0.0
22/03:52am 0.1 -1.9 0.0 99 0.0 CALM 0 0 0 0 1023.0 1023.1 0.0
22/03:42am 0.3 -1.7 0.2 99 0.0 CALM 0 0 0 0 1023.0 1023.1 0.0
22/03:30am 0.2 -1.8 0.1 99 0.0 CALM 0 0 0 0 1023.0 1023.1 0.0
22/03:21am -0.5 -2.6 -0.8 98 0.1 CALM 0 0 0 0 1023.1 1023.2 0.0
22/03:09am 0.0 -2.0 -0.1 99 0.0 CALM 0 0 0 0 1023.1 1023.2 0.0
22/03:00am 0.1 -1.9 0.0 99 0.0 CALM 0 0 0 0 1023.1 1023.2 0.0
22/02:30am 0.7 -1.6 0.6 99 0.0 SSE 2 6 1 3 1023.1 1023.2 0.0
22/02:00am 0.1 -3.3 -0.3 97 0.1 SSE 7 9 4 5 1023.2 1023.3 0.0
22/01:30am 0.3 -1.7 -0.1 97 0.1 CALM 0 0 0 0 1023.2 1023.3 0.0
22/01:00am 1.0 -0.9 0.6 97 0.1 CALM 0 0 0 0 1023.3 1023.4 0.0
22/12:30am 1.7 -0.1 1.3 97 0.2 CALM 0 0 0 0 1023.5 1023.6 0.0
22/12:00am 1.2 -0.7 0.3 94 0.3 CALM 0 0 0 0 1023.7 1023.8 0.0
 
Date/Time
EST
Temp
°C
App
Temp
°C
Dew
Point
°C
Rel
Hum
%
Delta-T
°C
Wind Press
QNH
hPa
Press
MSL
hPa
Rain since
9am
mm
Dir  Spd
km/h
Gust
km/h
Spd
kts
Gust
kts
21/11:30pm 1.6 -0.3 0.6 93 0.4 CALM 0 0 0 0 1024.1 1024.2 0.0
21/11:00pm 2.8 1.2 2.2 96 0.2 CALM 0 0 0 0 1024.0 1024.1 0.0
21/10:30pm 2.7 0.9 1.4 91 0.5 CALM 0 0 0 0 1023.9 1024.0 0.0
21/10:00pm 2.6 0.8 1.0 89 0.6 CALM 0 0 0 0 1023.5 1023.6 0.0
21/09:30pm 4.3 1.6 2.5 88 0.7 N 6 7 3 4 1023.2 1023.3 0.0
21/09:00pm 4.1 2.5 2.3 88 0.7 CALM 0 0 0 0 1023.4 1023.5 0.0
21/08:30pm 4.6 1.9 2.5 86 0.9 N 6 7 3 4 1023.1 1023.2 0.0
21/08:00pm 5.9 4.3 2.2 77 1.5 CALM 0 0 0 0 1023.0 1023.1 0.0
21/07:30pm 6.4 4.8 2.3 75 1.7 CALM 0 0 0 0 1022.9 1023.0 0.0
21/07:00pm 6.4 4.8 2.7 77 1.5 CALM 0 0 0 0 1022.7 1022.8 0.0
21/06:30pm 8.2 6.6 2.2 66 2.5 CALM 0 0 0 0 1022.4 1022.5 0.0
21/06:00pm 9.5 7.9 2.6 62 2.9 CALM 0 0 0 0 1022.1 1022.2 0.0
21/05:30pm 12.2 10.4 1.5 48 4.6 CALM 0 0 0 0 1021.8 1021.9 0.0
21/05:00pm 13.7 10.8 1.4 43 5.3 SSW 6 7 3 4 1021.5 1021.6 0.0
21/04:30pm 15.1 11.5 0.9 38 6.1 SSW 9 13 5 7 1021.2 1021.3 0.0
21/04:00pm 15.7 11.8 1.1 37 6.4 SSW 11 17 6 9 1021.0 1021.1 0.0
21/03:30pm 16.0 11.2 0.2 34 6.8 SW 15 20 8 11 1020.8 1020.9 0.0
21/03:00pm 16.2 11.4 -0.1 33 6.9 SSW 15 20 8 11 1020.6 1020.7 0.0
21/02:30pm 16.1 11.2 -0.2 33 6.9 S 15 24 8 13 1020.6 1020.7 0.0
21/02:00pm 16.0 10.5 0.6 35 6.6 S 19 26 10 14 1020.5 1020.6 0.0
21/01:30pm 16.3 10.9 1.2 36 6.6 S 19 33 10 18 1020.4 1020.5 0.0
21/01:00pm 15.9 10.2 0.5 35 6.6 S 20 32 11 17 1020.6 1020.7 0.0
21/12:30pm 15.4 9.9 0.8 37 6.3 SW 19 30 10 16 1020.9 1021.0 0.0
21/12:00pm 15.3 10.0 1.8 40 5.9 WSW 19 28 10 15 1021.3 1021.4 0.0
21/11:30am 14.5 9.1 1.1 40 5.8 SW 19 28 10 15 1021.8 1021.9 0.0
21/11:00am 14.0 9.1 2.0 44 5.2 SW 17 24 9 13 1021.9 1022.0 0.0
21/10:30am 13.0 7.4 1.0 44 5.1 SW 20 28 11 15 1022.1 1022.2 0.0
21/10:00am 12.5 6.1 1.2 46 4.8 SW 24 32 13 17 1022.1 1022.2 0.0
21/09:30am 12.2 5.9 1.8 49 4.5 SW 24 32 13 17 1021.7 1021.8 0.0
21/09:00am 11.1 5.2 1.6 52 4.0 SW 22 28 12 15 1021.3 1021.4 0.0
21/08:30am 9.9 4.9 1.3 55 3.6 WSW 17 22 9 12 1021.1 1021.2 0.0
21/08:00am 8.7 3.0 0.4 56 3.3 WSW 20 28 11 15 1021.0 1021.1 0.0
21/07:30am 7.6 2.8 0.1 59 3.0 SW 15 20 8 11 1020.7 1020.8 0.0
21/07:00am 7.6 1.8 0.1 59 2.9 WSW 20 28 11 15 1020.4 1020.5 0.0
21/06:30am 7.3 2.1 0.1 60 2.8 WSW 17 24 9 13 1020.0 1020.1 0.0
21/06:00am 6.6 2.1 -0.1 62 2.6 SW 13 20 7 11 1019.5 1019.6 0.0
21/05:30am 6.7 1.1 0.2 63 2.5 WSW 19 26 10 14 1019.0 1019.1 0.0
21/05:00am 6.5 2.1 0.6 66 2.3 WSW 13 22 7 12 1018.7 1018.8 0.0

Other Formats:

Comma delimited format used in spreadsheet applications
http://www.bom.gov.au/fwo/IDN60801/IDN60801.94755.axf

JavaScript Object Notation format (JSON) in row-major order
http://www.bom.gov.au/fwo/IDN60801/IDN60801.94755.json